createdAt,value
2023-03-18T00:00:16.796Z,7.87
2023-03-18T00:02:43.820Z,7.87
2023-03-18T00:05:12.883Z,7.84
2023-03-18T00:07:40.482Z,7.81
2023-03-18T00:10:10.189Z,7.82
2023-03-18T00:12:38.999Z,7.74
2023-03-18T00:15:11.852Z,7.74
2023-03-18T00:17:40.317Z,7.66
2023-03-18T00:20:08.617Z,7.68
2023-03-18T00:22:37.432Z,7.69
2023-03-18T00:25:06.124Z,7.65
2023-03-18T00:27:34.918Z,7.63
2023-03-18T00:30:02.416Z,7.62
2023-03-18T00:32:29.311Z,7.57
2023-03-18T00:34:57.064Z,7.56
2023-03-18T00:37:31.507Z,7.51
2023-03-18T00:40:06.526Z,7.47
2023-03-18T00:42:47.598Z,7.48
2023-03-18T00:45:17.254Z,7.45
2023-03-18T00:47:44.390Z,7.43
2023-03-18T00:50:12.566Z,7.40
2023-03-18T00:52:39.716Z,7.40
2023-03-18T00:55:07.544Z,7.42
2023-03-18T00:57:34.835Z,7.43
2023-03-18T01:00:02.717Z,7.45
2023-03-18T01:02:30.733Z,7.46
2023-03-18T01:04:58.101Z,7.45
2023-03-18T01:07:25.362Z,7.43
2023-03-18T01:09:52.355Z,7.45
2023-03-18T01:12:19.160Z,7.42
2023-03-18T01:14:45.955Z,7.44
2023-03-18T01:17:12.895Z,7.45
2023-03-18T01:19:39.730Z,7.47
2023-03-18T01:22:07.666Z,7.47
2023-03-18T01:24:41.321Z,7.50
2023-03-18T01:27:09.114Z,7.51
2023-03-18T01:29:37.825Z,7.56
2023-03-18T01:32:09.885Z,7.55
2023-03-18T01:34:36.776Z,7.58
2023-03-18T01:37:03.674Z,7.60
2023-03-18T01:39:34.454Z,7.59
2023-03-18T01:42:01.757Z,7.59
2023-03-18T01:44:31.674Z,7.60
2023-03-18T01:46:59.777Z,7.56
2023-03-18T01:49:49.725Z,7.55
2023-03-18T01:52:20.672Z,7.55
2023-03-18T01:55:00.529Z,7.58
2023-03-18T01:57:29.120Z,7.59
2023-03-18T01:59:58.086Z,7.61
2023-03-18T02:02:26.296Z,7.65
2023-03-18T02:04:56.605Z,7.67
2023-03-18T02:07:26.608Z,7.68
2023-03-18T02:09:56.945Z,7.67
2023-03-18T02:12:28.609Z,7.68
2023-03-18T02:15:01.344Z,7.68
2023-03-18T02:17:36.004Z,7.69
2023-03-18T02:20:28.050Z,7.72
2023-03-18T02:23:17.419Z,7.71
2023-03-18T02:25:53.384Z,7.67
2023-03-18T02:28:25.555Z,7.69
2023-03-18T02:30:57.053Z,7.70
2023-03-18T02:33:30.061Z,7.70
2023-03-18T02:36:03.438Z,7.70
2023-03-18T02:38:32.853Z,7.72
2023-03-18T02:41:01.645Z,7.70
2023-03-18T02:43:38.185Z,7.73
2023-03-18T02:46:35.574Z,7.74
2023-03-18T02:49:05.183Z,7.76
2023-03-18T02:51:33.017Z,7.77
2023-03-18T02:54:10.323Z,7.81
2023-03-18T02:56:38.693Z,7.80
2023-03-18T02:59:05.885Z,7.82
2023-03-18T03:01:34.547Z,7.83
2023-03-18T03:04:02.831Z,7.88
2023-03-18T03:06:29.907Z,7.89
2023-03-18T03:08:57.535Z,7.88
2023-03-18T03:11:25.358Z,7.90
2023-03-18T03:13:55.842Z,7.92
2023-03-18T03:16:22.826Z,7.93
2023-03-18T03:18:49.758Z,7.95
2023-03-18T03:21:17.186Z,7.97
2023-03-18T03:23:46.581Z,7.99
2023-03-18T03:26:16.009Z,8.00
2023-03-18T03:28:43.440Z,7.99
2023-03-18T03:31:10.972Z,7.98
2023-03-18T03:33:41.566Z,7.96
2023-03-18T03:36:10.954Z,7.96
2023-03-18T03:38:38.094Z,7.95
2023-03-18T03:41:05.849Z,7.96
2023-03-18T03:43:34.091Z,7.97
2023-03-18T03:46:01.272Z,7.99
2023-03-18T03:48:28.190Z,7.94
2023-03-18T03:50:55.973Z,7.97
2023-03-18T03:53:25.128Z,7.97
2023-03-18T03:55:53.008Z,7.96
2023-03-18T03:58:20.159Z,7.95
2023-03-18T04:00:48.060Z,7.97
2023-03-18T04:03:15.004Z,7.97
2023-03-18T04:05:43.388Z,7.96
2023-03-18T04:08:10.717Z,7.99
2023-03-18T04:10:39.421Z,8.03
2023-03-18T04:13:10.356Z,8.04
2023-03-18T04:15:39.345Z,8.06
2023-03-18T04:18:13.384Z,8.07
2023-03-18T04:20:41.206Z,8.02
2023-03-18T04:23:25.891Z,8.03
2023-03-18T04:25:52.761Z,8.00
2023-03-18T04:28:19.780Z,7.98
2023-03-18T04:30:48.510Z,8.03
2023-03-18T04:33:18.008Z,8.03
2023-03-18T04:35:45.655Z,8.04
2023-03-18T04:38:14.777Z,8.03
2023-03-18T04:40:43.032Z,7.99
2023-03-18T04:43:10.161Z,7.95
2023-03-18T04:45:37.298Z,7.91
2023-03-18T04:48:04.441Z,7.88
2023-03-18T04:50:36.609Z,7.82
2023-03-18T04:53:06.728Z,7.81
2023-03-18T04:55:34.191Z,7.77
2023-03-18T04:58:03.782Z,7.72
2023-03-18T05:00:36.899Z,7.68
2023-03-18T05:03:16.071Z,7.63
2023-03-18T05:05:44.172Z,7.58
2023-03-18T05:08:13.339Z,7.51
2023-03-18T05:10:41.537Z,7.43
2023-03-18T05:13:11.694Z,7.36
2023-03-18T05:15:38.585Z,7.31
2023-03-18T05:18:05.781Z,7.27
2023-03-18T05:20:33.191Z,7.18
2023-03-18T05:23:00.703Z,7.13
2023-03-18T05:25:41.718Z,7.11
2023-03-18T05:28:11.255Z,7.11
2023-03-18T05:30:47.563Z,7.09
2023-03-18T05:33:17.067Z,7.05
2023-03-18T05:35:52.230Z,7.00
2023-03-18T05:38:23.090Z,6.93
2023-03-18T05:40:50.551Z,6.82
2023-03-18T05:43:22.257Z,6.79
2023-03-18T05:45:53.397Z,6.78
2023-03-18T05:48:27.176Z,6.80
2023-03-18T05:50:58.927Z,6.82
2023-03-18T05:53:28.971Z,6.82
2023-03-18T05:56:05.904Z,6.78
2023-03-18T05:58:34.541Z,6.80
2023-03-18T06:01:20.397Z,6.79
2023-03-18T06:03:47.768Z,6.81
2023-03-18T06:06:14.620Z,6.78
2023-03-18T06:08:41.654Z,6.74
2023-03-18T06:11:09.227Z,6.77
2023-03-18T06:13:36.036Z,6.81
2023-03-18T06:16:04.050Z,6.84
2023-03-18T06:18:31.428Z,6.88
2023-03-18T06:20:58.287Z,6.91
2023-03-18T06:23:28.050Z,6.97
2023-03-18T06:25:56.220Z,7.03
2023-03-18T06:28:29.616Z,7.10
2023-03-18T06:31:00.226Z,7.16
2023-03-18T06:33:28.487Z,7.22
2023-03-18T06:35:56.336Z,7.29
2023-03-18T06:38:23.240Z,7.30
2023-03-18T06:40:51.493Z,7.38
2023-03-18T06:43:18.806Z,7.42
2023-03-18T06:45:46.509Z,7.46
2023-03-18T06:48:14.187Z,7.49
2023-03-18T06:50:44.205Z,7.47
2023-03-18T06:53:18.769Z,7.48
2023-03-18T06:55:47.394Z,7.48
2023-03-18T06:58:17.540Z,7.49
2023-03-18T07:00:52.165Z,7.50
2023-03-18T07:03:26.289Z,7.57
2023-03-18T07:05:54.507Z,7.63
2023-03-18T07:08:21.490Z,7.70
2023-03-18T07:10:52.869Z,7.72
2023-03-18T07:13:20.613Z,7.77
2023-03-18T07:15:48.155Z,7.84
2023-03-18T07:18:15.051Z,7.89
2023-03-18T07:20:42.198Z,7.93
2023-03-18T07:23:10.049Z,8.00
2023-03-18T07:25:37.180Z,8.06
2023-03-18T07:28:05.885Z,8.11
2023-03-18T07:30:34.129Z,8.20
2023-03-18T07:33:01.170Z,8.30
2023-03-18T07:35:28.903Z,8.39
2023-03-18T07:37:55.965Z,8.49
2023-03-18T07:40:23.637Z,8.60
2023-03-18T07:42:51.830Z,8.70
2023-03-18T07:45:18.653Z,8.79
2023-03-18T07:47:47.219Z,8.88
2023-03-18T07:50:14.219Z,8.99
2023-03-18T07:52:41.040Z,9.04
2023-03-18T07:55:09.292Z,9.10
2023-03-18T07:57:36.791Z,9.13
2023-03-18T08:00:06.368Z,9.18
2023-03-18T08:02:40.382Z,9.24
2023-03-18T08:05:07.596Z,9.32
2023-03-18T08:07:35.728Z,9.39
2023-03-18T08:10:03.022Z,9.45
2023-03-18T08:12:38.473Z,9.51
2023-03-18T08:15:16.353Z,9.63
2023-03-18T08:17:43.136Z,9.71
2023-03-18T08:20:10.630Z,9.80
2023-03-18T08:22:38.010Z,9.87
2023-03-18T08:25:05.220Z,9.99
2023-03-18T08:27:32.093Z,10.11
2023-03-18T08:29:58.928Z,10.23
2023-03-18T08:32:25.965Z,10.34
2023-03-18T08:34:52.768Z,10.48
2023-03-18T08:37:19.646Z,10.57
2023-03-18T08:39:46.428Z,10.64
2023-03-18T08:42:13.556Z,10.71
2023-03-18T08:44:40.496Z,10.75
2023-03-18T08:47:08.343Z,10.83
2023-03-18T08:49:35.739Z,10.88
2023-03-18T08:52:03.578Z,10.99
2023-03-18T08:54:30.378Z,11.10
2023-03-18T08:56:57.328Z,11.27
2023-03-18T08:59:24.202Z,11.37
2023-03-18T09:01:50.983Z,11.45
2023-03-18T09:04:17.842Z,11.53
2023-03-18T09:06:44.728Z,11.59
2023-03-18T09:09:11.958Z,11.72
2023-03-18T09:11:39.986Z,11.83
2023-03-18T09:14:07.096Z,11.92
2023-03-18T09:16:35.939Z,12.02
2023-03-18T09:19:02.749Z,12.14
2023-03-18T09:21:29.605Z,12.22
2023-03-18T09:23:56.973Z,12.38
2023-03-18T09:26:24.236Z,12.56
2023-03-18T09:28:51.028Z,12.71
2023-03-18T09:31:18.992Z,12.77
2023-03-18T09:33:47.188Z,12.90
2023-03-18T09:36:14.874Z,13.08
2023-03-18T09:38:42.637Z,13.25
2023-03-18T09:41:48.421Z,13.33
2023-03-18T09:44:30.284Z,13.33
2023-03-18T09:47:26.724Z,13.27
2023-03-18T09:50:21.234Z,13.18
2023-03-18T09:52:54.307Z,13.07
2023-03-18T09:55:40.304Z,13.08
2023-03-18T09:58:33.644Z,13.18
2023-03-18T10:01:03.163Z,13.24
2023-03-18T10:03:37.702Z,13.35
2023-03-18T10:06:18.317Z,13.50
2023-03-18T10:08:58.635Z,13.62
2023-03-18T10:11:48.461Z,13.69
2023-03-18T10:14:29.632Z,13.73
2023-03-18T10:17:26.170Z,13.81
2023-03-18T10:19:59.378Z,13.85
2023-03-18T10:22:51.417Z,14.11
2023-03-18T10:25:24.667Z,14.44
2023-03-18T10:28:17.314Z,14.85
2023-03-18T10:31:04.617Z,15.29
2023-03-18T10:33:48.293Z,15.81
2023-03-18T10:36:19.639Z,16.17
2023-03-18T10:38:55.256Z,16.49
2023-03-18T10:41:28.729Z,16.63
2023-03-18T10:43:56.985Z,16.78
2023-03-18T10:46:26.013Z,17.11
2023-03-18T10:49:01.015Z,17.56
2023-03-18T10:51:45.586Z,17.95
2023-03-18T10:54:24.034Z,18.11
2023-03-18T10:56:52.884Z,18.30
2023-03-18T10:59:22.132Z,18.42
2023-03-18T11:01:59.147Z,18.54
2023-03-18T11:04:28.613Z,18.76
2023-03-18T11:07:00.838Z,18.97
2023-03-18T11:09:36.541Z,19.25
2023-03-18T11:12:15.840Z,19.53
2023-03-18T11:14:49.618Z,19.65
2023-03-18T11:17:23.530Z,19.79
2023-03-18T11:20:01.007Z,20.06
2023-03-18T11:22:30.062Z,20.14
2023-03-18T11:25:11.748Z,20.26
2023-03-18T11:27:48.461Z,20.25
2023-03-18T11:30:33.133Z,20.38
2023-03-18T11:33:10.709Z,20.59
2023-03-18T11:36:04.870Z,20.71
2023-03-18T11:38:36.973Z,20.83
2023-03-18T11:41:25.251Z,21.14
2023-03-18T11:44:06.859Z,21.35
2023-03-18T11:46:47.915Z,21.76
2023-03-18T11:49:18.359Z,22.25
2023-03-18T11:52:12.074Z,22.45
2023-03-18T11:54:49.389Z,22.37
2023-03-18T11:57:24.821Z,22.16
2023-03-18T12:00:07.339Z,22.14
2023-03-18T12:03:20.337Z,22.07
2023-03-18T12:06:16.797Z,22.01
2023-03-18T12:09:25.215Z,21.88
2023-03-18T12:12:08.606Z,21.87
2023-03-18T12:14:52.112Z,22.06
2023-03-18T12:17:36.818Z,22.07
2023-03-18T12:20:22.716Z,22.22
2023-03-18T12:23:03.536Z,22.32
2023-03-18T12:25:43.327Z,22.41
2023-03-18T12:28:16.866Z,22.54
2023-03-18T12:31:30.164Z,22.73
2023-03-18T12:34:01.641Z,22.94
2023-03-18T12:36:35.950Z,23.05
2023-03-18T12:39:28.845Z,22.85
2023-03-18T12:42:10.926Z,22.75
2023-03-18T12:45:14.833Z,22.92
2023-03-18T12:47:48.889Z,22.90
2023-03-18T12:50:22.824Z,23.17
2023-03-18T12:52:59.608Z,23.33
2023-03-18T12:55:48.367Z,23.33
2023-03-18T12:58:28.269Z,23.43
2023-03-18T13:01:08.033Z,23.66
2023-03-18T13:03:39.059Z,23.78
2023-03-18T13:06:31.198Z,23.94
2023-03-18T13:09:13.687Z,23.89
2023-03-18T13:11:55.731Z,23.99
2023-03-18T13:14:30.074Z,23.84
2023-03-18T13:17:03.344Z,23.74
2023-03-18T13:19:31.202Z,23.84
2023-03-18T13:22:36.907Z,24.19
2023-03-18T13:25:18.045Z,24.20
2023-03-18T13:28:02.307Z,24.47
2023-03-18T13:30:56.516Z,24.57
2023-03-18T13:33:27.296Z,24.48
2023-03-18T13:36:06.734Z,24.31
2023-03-18T13:38:36.837Z,24.33
2023-03-18T13:41:19.037Z,24.56
2023-03-18T13:43:49.675Z,24.49
2023-03-18T13:46:23.239Z,24.20
2023-03-18T13:48:56.497Z,24.07
2023-03-18T13:51:23.735Z,24.07
2023-03-18T13:53:55.457Z,24.11
2023-03-18T13:56:43.851Z,24.06
2023-03-18T13:59:35.736Z,24.07
2023-03-18T14:02:22.452Z,24.40
2023-03-18T14:04:51.576Z,24.80
2023-03-18T14:07:20.580Z,25.18
2023-03-18T14:09:47.840Z,25.61
2023-03-18T14:12:20.888Z,26.15
2023-03-18T14:14:51.550Z,26.48
2023-03-18T14:17:25.769Z,26.31
2023-03-18T14:19:54.955Z,26.22
2023-03-18T14:22:28.618Z,26.15
2023-03-18T14:25:28.198Z,26.20
2023-03-18T14:28:01.222Z,26.55
2023-03-18T14:30:32.301Z,26.72
2023-03-18T14:33:01.400Z,26.06
2023-03-18T14:35:33.804Z,25.33
2023-03-18T14:38:03.922Z,24.48
2023-03-18T14:40:46.457Z,23.62
2023-03-18T14:43:22.500Z,22.96
2023-03-18T14:45:51.071Z,22.47
2023-03-18T14:48:21.765Z,22.19
2023-03-18T14:50:55.096Z,21.86
2023-03-18T14:53:33.444Z,21.62
2023-03-18T14:56:03.984Z,21.36
2023-03-18T14:58:33.613Z,21.10
2023-03-18T15:01:07.544Z,20.81
2023-03-18T15:03:34.600Z,20.58
2023-03-18T15:06:03.883Z,20.44
2023-03-18T15:08:46.854Z,20.29
2023-03-18T15:11:16.719Z,20.15
2023-03-18T15:13:45.234Z,20.02
2023-03-18T15:16:18.364Z,19.87
2023-03-18T15:18:45.679Z,19.75
2023-03-18T15:21:24.231Z,19.79
2023-03-18T15:23:55.145Z,19.84
2023-03-18T15:26:25.164Z,19.91
2023-03-18T15:29:01.524Z,19.90
2023-03-18T15:31:35.032Z,19.90
2023-03-18T15:34:31.927Z,19.83
2023-03-18T15:37:01.243Z,19.76
2023-03-18T15:39:29.902Z,19.65
2023-03-18T15:41:59.059Z,19.55
2023-03-18T15:44:36.716Z,19.47
2023-03-18T15:47:14.750Z,19.47
2023-03-18T15:49:56.051Z,19.49
2023-03-18T15:52:42.231Z,19.50
2023-03-18T15:55:30.347Z,19.49
2023-03-18T15:57:58.814Z,19.45
2023-03-18T16:00:25.960Z,19.43
2023-03-18T16:02:54.149Z,19.39
2023-03-18T16:05:26.435Z,19.33
2023-03-18T16:07:54.106Z,19.29
2023-03-18T16:10:24.001Z,19.22
2023-03-18T16:12:55.066Z,19.15
2023-03-18T16:15:24.460Z,19.12
2023-03-18T16:17:53.709Z,19.05
2023-03-18T16:20:23.583Z,19.00
2023-03-18T16:22:51.193Z,18.93
2023-03-18T16:25:19.104Z,18.88
2023-03-18T16:27:48.821Z,18.80
2023-03-18T16:30:26.091Z,18.70
2023-03-18T16:32:54.262Z,18.59
2023-03-18T16:35:24.699Z,18.49
2023-03-18T16:37:53.226Z,18.40
2023-03-18T16:40:25.097Z,18.30
2023-03-18T16:42:53.206Z,18.21
2023-03-18T16:45:24.458Z,18.10
2023-03-18T16:47:52.072Z,17.98
2023-03-18T16:50:24.633Z,17.90
2023-03-18T16:52:51.941Z,17.81
2023-03-18T16:55:19.496Z,17.72
2023-03-18T16:57:52.596Z,17.64
2023-03-18T17:00:24.691Z,17.53
2023-03-18T17:02:55.632Z,17.44
2023-03-18T17:05:22.819Z,17.33
2023-03-18T17:07:50.666Z,17.21
2023-03-18T17:10:22.269Z,17.16
2023-03-18T17:12:59.686Z,17.10
2023-03-18T17:15:33.077Z,16.97
2023-03-18T17:18:01.744Z,16.87
2023-03-18T17:20:32.533Z,16.76
2023-03-18T17:23:04.287Z,16.71
2023-03-18T17:25:31.959Z,16.63
2023-03-18T17:28:15.645Z,16.54
2023-03-18T17:30:42.525Z,16.43
2023-03-18T17:33:23.456Z,16.37
2023-03-18T17:35:51.268Z,16.28
2023-03-18T17:38:18.761Z,16.21
2023-03-18T17:40:48.223Z,16.10
2023-03-18T17:43:28.109Z,16.04
2023-03-18T17:45:58.913Z,15.94
2023-03-18T17:48:28.593Z,15.86
2023-03-18T17:50:58.692Z,15.80
2023-03-18T17:53:33.703Z,15.73
2023-03-18T17:56:02.494Z,15.68
2023-03-18T17:58:31.942Z,15.59
2023-03-18T18:01:08.605Z,15.53
2023-03-18T18:03:38.808Z,15.47
2023-03-18T18:06:07.198Z,15.42
2023-03-18T18:08:34.744Z,15.32
2023-03-18T18:11:17.839Z,15.31
2023-03-18T18:13:44.961Z,15.23
2023-03-18T18:16:12.987Z,15.18
2023-03-18T18:18:40.566Z,15.10
2023-03-18T18:21:15.152Z,14.97
2023-03-18T18:23:45.516Z,14.86
2023-03-18T18:26:17.555Z,14.77
2023-03-18T18:28:49.540Z,14.69
2023-03-18T18:31:17.887Z,14.63
2023-03-18T18:33:45.872Z,14.59
2023-03-18T18:36:14.321Z,14.55
2023-03-18T18:38:41.830Z,14.52
2023-03-18T18:41:08.886Z,14.44
2023-03-18T18:43:36.212Z,14.40
2023-03-18T18:46:03.645Z,14.34
2023-03-18T18:48:35.752Z,14.31
2023-03-18T18:51:04.834Z,14.23
2023-03-18T18:53:36.776Z,14.19
2023-03-18T18:56:23.104Z,14.12
2023-03-18T18:58:51.956Z,14.06
2023-03-18T19:01:19.747Z,14.00
2023-03-18T19:03:48.404Z,13.94
2023-03-18T19:06:29.244Z,13.91
2023-03-18T19:08:57.985Z,13.86
2023-03-18T19:11:26.037Z,13.83
2023-03-18T19:13:55.004Z,13.76
2023-03-18T19:16:29.709Z,13.70
2023-03-18T19:18:57.743Z,13.65
2023-03-18T19:21:25.383Z,13.57
2023-03-18T19:23:52.229Z,13.52
2023-03-18T19:26:21.371Z,13.48
2023-03-18T19:28:57.536Z,13.41
2023-03-18T19:31:30.821Z,13.37
2023-03-18T19:33:59.892Z,13.29
2023-03-18T19:36:39.881Z,13.23
2023-03-18T19:39:13.046Z,13.18
2023-03-18T19:41:40.023Z,13.12
2023-03-18T19:44:22.035Z,13.06
2023-03-18T19:46:51.560Z,13.00
2023-03-18T19:49:24.542Z,12.97
2023-03-18T19:51:52.107Z,12.92
2023-03-18T19:54:25.709Z,12.90
2023-03-18T19:56:54.094Z,12.84
2023-03-18T19:59:33.545Z,12.78
2023-03-18T20:02:17.215Z,12.72
2023-03-18T20:04:44.482Z,12.68
2023-03-18T20:07:11.595Z,12.67
2023-03-18T20:09:39.500Z,12.65
2023-03-18T20:12:09.473Z,12.57
2023-03-18T20:14:38.367Z,12.53
2023-03-18T20:17:24.895Z,12.43
2023-03-18T20:19:51.711Z,12.37
2023-03-18T20:22:23.824Z,12.32
2023-03-18T20:24:50.616Z,12.29
2023-03-18T20:27:18.177Z,12.29
2023-03-18T20:29:47.133Z,12.26
2023-03-18T20:32:14.394Z,12.24
2023-03-18T20:34:41.779Z,12.20
2023-03-18T20:37:34.110Z,12.16
2023-03-18T20:40:02.974Z,12.08
2023-03-18T20:42:29.952Z,12.03
2023-03-18T20:44:56.720Z,11.98
2023-03-18T20:47:23.770Z,11.90
2023-03-18T20:49:50.556Z,11.83
2023-03-18T20:52:26.037Z,11.81
2023-03-18T20:54:52.988Z,11.72
2023-03-18T20:57:20.191Z,11.68
2023-03-18T20:59:47.635Z,11.60
2023-03-18T21:02:31.700Z,11.53
2023-03-18T21:05:01.012Z,11.52
2023-03-18T21:07:29.009Z,11.49
2023-03-18T21:09:56.163Z,11.43
2023-03-18T21:12:23.252Z,11.42
2023-03-18T21:14:50.400Z,11.38
2023-03-18T21:17:26.031Z,11.28
2023-03-18T21:20:00.691Z,11.22
2023-03-18T21:22:33.435Z,11.16
2023-03-18T21:25:00.374Z,11.10
2023-03-18T21:27:28.119Z,11.07
2023-03-18T21:29:57.892Z,11.04
2023-03-18T21:32:27.433Z,11.02
2023-03-18T21:34:54.912Z,11.02
2023-03-18T21:37:24.229Z,10.97
2023-03-18T21:39:51.666Z,10.92
2023-03-18T21:42:19.624Z,10.89
2023-03-18T21:44:46.830Z,10.83
2023-03-18T21:47:16.012Z,10.74
2023-03-18T21:49:43.649Z,10.70
2023-03-18T21:52:22.501Z,10.67
2023-03-18T21:54:49.316Z,10.64
2023-03-18T21:57:18.556Z,10.58
2023-03-18T21:59:46.444Z,10.54
2023-03-18T22:02:28.044Z,10.51
2023-03-18T22:05:00.397Z,10.48
2023-03-18T22:07:29.366Z,10.44
2023-03-18T22:09:57.286Z,10.42
2023-03-18T22:12:30.350Z,10.40
2023-03-18T22:14:58.172Z,10.35
2023-03-18T22:17:28.531Z,10.35
2023-03-18T22:19:57.507Z,10.33
2023-03-18T22:22:27.481Z,10.32
2023-03-18T22:24:54.402Z,10.27
2023-03-18T22:27:29.434Z,10.25
2023-03-18T22:29:58.660Z,10.19
2023-03-18T22:32:42.915Z,10.14
2023-03-18T22:35:15.945Z,10.05
2023-03-18T22:37:43.599Z,9.97
2023-03-18T22:40:16.823Z,9.94
2023-03-18T22:42:44.342Z,9.95
2023-03-18T22:45:22.079Z,9.93
2023-03-18T22:47:50.462Z,9.88
2023-03-18T22:50:17.591Z,9.87
2023-03-18T22:52:45.264Z,9.85
2023-03-18T22:55:22.789Z,9.89
2023-03-18T22:57:50.434Z,9.86
2023-03-18T23:00:47.283Z,9.86
2023-03-18T23:03:24.048Z,9.81
2023-03-18T23:05:53.125Z,9.78
2023-03-18T23:08:21.350Z,9.72
2023-03-18T23:10:50.014Z,9.71
2023-03-18T23:13:26.320Z,9.70
2023-03-18T23:15:54.404Z,9.66
2023-03-18T23:18:21.687Z,9.67
2023-03-18T23:20:50.585Z,9.71
2023-03-18T23:23:18.791Z,9.71
2023-03-18T23:25:46.403Z,9.73
2023-03-18T23:28:14.777Z,9.75
2023-03-18T23:30:44.449Z,9.76
2023-03-18T23:33:11.797Z,9.72
2023-03-18T23:35:39.159Z,9.70
2023-03-18T23:38:06.728Z,9.70
2023-03-18T23:40:34.287Z,9.65
2023-03-18T23:43:03.008Z,9.60
2023-03-18T23:45:31.239Z,9.54
2023-03-18T23:47:58.403Z,9.48
2023-03-18T23:50:25.754Z,9.47
2023-03-18T23:52:53.381Z,9.43
2023-03-18T23:55:34.035Z,9.40
2023-03-18T23:58:02.087Z,9.39
